M/V Oriole — WDE6982 — position and weather

sailwx.info

Track history (hours):
 
Tides and Currents Weather Stations Pressure Air Temp Water Temp Dewpoint Dewpoint Depression Visibility Wind Speed Wind Dir Waves Ship Positions

M/V Oriole

Owner: NATIVE SON INC., ST. THOMAS, VI. More information available from US FCC via Universal Licensing System and Coast Guard Vessel Documentation Center.

Last reported at 2015-May-25 14:32 UTC. Time now 2015-May-25 17:28 UTC.
Position N 18°19' W 064°50'.

Length 25 m.

Type: Passenger vessel. MMSI: 366755670.

Date/timePositionNaut miles runAvg speedWind from/ knotsBaromVisibWave heightAir tempDewpointWater temp
2015-May-25 14:32N 18°19' W 064°50'8 0.2
2015-May-23 14:33N 18°23' W 064°42'6 4.9
2015-May-23 13:19N 18°20' W 064°48'2 2.3
2015-May-23 12:33N 18°22' W 064°47'2 1.7
2015-May-23 11:33N 18°20' W 064°48'9 8.5
2015-May-23 10:33N 18°23' W 064°39'3 0.2
2015-May-22 22:26N 18°23' W 064°42'7 7.2
2015-May-22 21:29N 18°20' W 064°49'6 6.6
2015-May-22 20:33N 18°23' W 064°43'4 3.9
2015-May-22 19:31N 18°22' W 064°47'2 0.8
2015-May-22 17:19N 18°20' W 064°48'6 7.8
2015-May-22 16:33N 18°23' W 064°42'8 5.8
2015-May-22 15:10N 18°20' W 064°50'1 0.9
2015-May-22 14:19N 18°20' W 064°49'8 0.5
2015-May-21 22:33N 18°23' W 064°42'6 3.0
2015-May-21 20:29N 18°20' W 064°48'3 3.5
2015-May-21 19:33N 18°22' W 064°45'3 1.3
2015-May-21 17:04N 18°20' W 064°48'611.5
2015-May-21 16:32N 18°23' W 064°42'6 2.0
2015-May-21 13:31N 18°20' W 064°48'6 6.2
2015-May-21 12:33N 18°23' W 064°42'6 4.8
2015-May-21 11:18N 18°20' W 064°48'6 7.5
2015-May-21 10:28N 18°23' W 064°42'0 0.0
2015-May-20 19:33N 18°23' W 064°42'7 1.3
2015-May-20 14:33N 18°20' W 064°48'10 0.4
2015-May-19 14:33N 18°23' W 064°39'11 8.7
2015-May-19 13:21N 18°20' W 064°49'4 3.6
2015-May-19 12:09N 18°22' W 064°45'5 8.6
2015-May-19 11:32N 18°20' W 064°50'8 8.5
2015-May-19 10:33N 18°23' W 064°42'4 0.3
2015-May-18 22:10N 18°24' W 064°38'10 5.8
2015-May-18 20:26N 18°20' W 064°48'3 3.3
2015-May-18 19:33N 18°22' W 064°46'4 1.9
2015-May-18 17:18N 18°20' W 064°49'8 9.3
2015-May-18 16:29N 18°23' W 064°42'0 0.0
2015-May-18 12:29N 18°23' W 064°42'6 6.2
2015-May-18 11:30N 18°20' W 064°48'6 6.3
2015-May-18 10:31N 18°23' W 064°42'4 0.3
2015-May-17 21:30N 18°22' W 064°46'3 2.7
2015-May-17 20:32N 18°20' W 064°48'3 3.1
2015-May-17 19:33N 18°22' W 064°46'5 2.2
2015-May-17 17:24N 18°20' W 064°50'8 9.4
2015-May-17 16:33N 18°23' W 064°42'8 2.4
2015-May-17 13:16N 18°20' W 064°50'810.5
2015-May-17 12:31N 18°23' W 064°42'6 6.2
2015-May-17 11:32N 18°20' W 064°48'6 6.0
2015-May-17 10:30N 18°23' W 064°42'4 0.3
2015-May-16 22:08N 18°23' W 064°38'1117.7
2015-May-16 21:33N 18°21' W 064°49'1 1.2
2015-May-16 20:28N 18°20' W 064°48'2 2.6
2015-May-16 19:30N 18°22' W 064°46'4 1.9
2015-May-16 17:17N 18°20' W 064°50'810.9
2015-May-16 16:33N 18°23' W 064°42'6 1.8
2015-May-16 13:14N 18°20' W 064°48'2 2.4
2015-May-16 12:29N 18°22' W 064°47'2 1.4
2015-May-16 11:08N 18°20' W 064°48'711.5
2015-May-16 10:33N 18°23' W 064°41'3 0.3
2015-May-15 22:20N 18°24' W 064°38'1310.1
2015-May-15 21:04N 18°20' W 064°51'4 6.3
2015-May-15 20:25N 18°22' W 064°47'4 1.2
2015-May-15 17:16N 18°20' W 064°50'810.8
2015-May-15 16:30N 18°23' W 064°42'  
Track history (hours):
 
Tides and Currents Weather Stations Pressure Air Temp Water Temp Dewpoint Dewpoint Depression Visibility Wind Speed Wind Dir Waves Ship Positions

M/V Oriole

Owner: NATIVE SON INC., ST. THOMAS, VI. More information available from US FCC via Universal Licensing System and Coast Guard Vessel Documentation Center.

Last reported at 2015-May-25 14:32 UTC. Time now 2015-May-25 17:28 UTC.
Position N 18°19' W 064°50'.

Length 25 m.

Type: Passenger vessel. MMSI: 366755670.

Date/timePositionNaut miles runAvg speedWind from/ knotsBaromVisibWave heightAir tempDewpointWater temp
2015-May-25 14:32N 18°19' W 064°50'8 0.2
2015-May-23 14:33N 18°23' W 064°42'6 4.9
2015-May-23 13:19N 18°20' W 064°48'2 2.3
2015-May-23 12:33N 18°22' W 064°47'2 1.7
2015-May-23 11:33N 18°20' W 064°48'9 8.5
2015-May-23 10:33N 18°23' W 064°39'3 0.2
2015-May-22 22:26N 18°23' W 064°42'7 7.2
2015-May-22 21:29N 18°20' W 064°49'6 6.6
2015-May-22 20:33N 18°23' W 064°43'4 3.9
2015-May-22 19:31N 18°22' W 064°47'2 0.8
2015-May-22 17:19N 18°20' W 064°48'6 7.8
2015-May-22 16:33N 18°23' W 064°42'8 5.8
2015-May-22 15:10N 18°20' W 064°50'1 0.9
2015-May-22 14:19N 18°20' W 064°49'8 0.5
2015-May-21 22:33N 18°23' W 064°42'6 3.0
2015-May-21 20:29N 18°20' W 064°48'3 3.5
2015-May-21 19:33N 18°22' W 064°45'3 1.3
2015-May-21 17:04N 18°20' W 064°48'611.5
2015-May-21 16:32N 18°23' W 064°42'6 2.0
2015-May-21 13:31N 18°20' W 064°48'6 6.2
2015-May-21 12:33N 18°23' W 064°42'6 4.8
2015-May-21 11:18N 18°20' W 064°48'6 7.5
2015-May-21 10:28N 18°23' W 064°42'0 0.0
2015-May-20 19:33N 18°23' W 064°42'7 1.3
2015-May-20 14:33N 18°20' W 064°48'10 0.4
2015-May-19 14:33N 18°23' W 064°39'11 8.7
2015-May-19 13:21N 18°20' W 064°49'4 3.6
2015-May-19 12:09N 18°22' W 064°45'5 8.6
2015-May-19 11:32N 18°20' W 064°50'8 8.5
2015-May-19 10:33N 18°23' W 064°42'4 0.3
2015-May-18 22:10N 18°24' W 064°38'10 5.8
2015-May-18 20:26N 18°20' W 064°48'3 3.3
2015-May-18 19:33N 18°22' W 064°46'4 1.9
2015-May-18 17:18N 18°20' W 064°49'8 9.3
2015-May-18 16:29N 18°23' W 064°42'0 0.0
2015-May-18 12:29N 18°23' W 064°42'6 6.2
2015-May-18 11:30N 18°20' W 064°48'6 6.3
2015-May-18 10:31N 18°23' W 064°42'4 0.3
2015-May-17 21:30N 18°22' W 064°46'3 2.7
2015-May-17 20:32N 18°20' W 064°48'3 3.1
2015-May-17 19:33N 18°22' W 064°46'5 2.2
2015-May-17 17:24N 18°20' W 064°50'8 9.4
2015-May-17 16:33N 18°23' W 064°42'8 2.4
2015-May-17 13:16N 18°20' W 064°50'810.5
2015-May-17 12:31N 18°23' W 064°42'6 6.2
2015-May-17 11:32N 18°20' W 064°48'6 6.0
2015-May-17 10:30N 18°23' W 064°42'4 0.3
2015-May-16 22:08N 18°23' W 064°38'1117.7
2015-May-16 21:33N 18°21' W 064°49'1 1.2
2015-May-16 20:28N 18°20' W 064°48'2 2.6
2015-May-16 19:30N 18°22' W 064°46'4 1.9
2015-May-16 17:17N 18°20' W 064°50'810.9
2015-May-16 16:33N 18°23' W 064°42'6 1.8
2015-May-16 13:14N 18°20' W 064°48'2 2.4
2015-May-16 12:29N 18°22' W 064°47'2 1.4
2015-May-16 11:08N 18°20' W 064°48'711.5
2015-May-16 10:33N 18°23' W 064°41'3 0.3
2015-May-15 22:20N 18°24' W 064°38'1310.1
2015-May-15 21:04N 18°20' W 064°51'4 6.3
2015-May-15 20:25N 18°22' W 064°47'4 1.2
2015-May-15 17:16N 18°20' W 064°50'810.8
2015-May-15 16:30N 18°23' W 064°42'  

Dump ship's entire track history